sensor_id;sensor_type;location;lat;lon;timestamp;P1;durP1;ratioP1;P2;durP2;ratioP2
62030;SDS011;62035;52.094;5.112;2023-05-15T00:01:24;32.08;;;19.85;;
62030;SDS011;62035;52.094;5.112;2023-05-15T00:03:51;33.03;;;19.85;;
62030;SDS011;62035;52.094;5.112;2023-05-15T00:06:19;33.38;;;19.85;;
62030;SDS011;62035;52.094;5.112;2023-05-15T00:08:47;31.77;;;19.73;;
62030;SDS011;62035;52.094;5.112;2023-05-15T00:11:15;35.63;;;20.60;;
62030;SDS011;62035;52.094;5.112;2023-05-15T00:13:42;32.85;;;19.75;;
62030;SDS011;62035;52.094;5.112;2023-05-15T00:16:10;34.35;;;20.67;;
62030;SDS011;62035;52.094;5.112;2023-05-15T00:18:39;35.58;;;20.13;;
62030;SDS011;62035;52.094;5.112;2023-05-15T00:21:07;35.20;;;20.10;;
62030;SDS011;62035;52.094;5.112;2023-05-15T00:23:34;34.92;;;20.88;;
62030;SDS011;62035;52.094;5.112;2023-05-15T00:26:03;35.90;;;21.42;;
62030;SDS011;62035;52.094;5.112;2023-05-15T00:28:31;33.65;;;20.50;;
62030;SDS011;62035;52.094;5.112;2023-05-15T00:30:58;35.67;;;21.45;;
62030;SDS011;62035;52.094;5.112;2023-05-15T00:33:26;35.20;;;20.58;;
62030;SDS011;62035;52.094;5.112;2023-05-15T00:35:55;37.20;;;20.80;;
62030;SDS011;62035;52.094;5.112;2023-05-15T00:38:22;33.88;;;20.45;;
62030;SDS011;62035;52.094;5.112;2023-05-15T00:40:50;39.33;;;22.38;;
62030;SDS011;62035;52.094;5.112;2023-05-15T00:43:20;42.22;;;23.85;;
62030;SDS011;62035;52.094;5.112;2023-05-15T00:45:49;45.45;;;22.60;;
62030;SDS011;62035;52.094;5.112;2023-05-15T00:48:18;44.28;;;24.58;;
62030;SDS011;62035;52.094;5.112;2023-05-15T00:50:47;41.33;;;23.33;;
62030;SDS011;62035;52.094;5.112;2023-05-15T00:53:18;48.85;;;25.15;;
62030;SDS011;62035;52.094;5.112;2023-05-15T00:55:45;47.70;;;24.50;;
62030;SDS011;62035;52.094;5.112;2023-05-15T00:58:13;48.65;;;25.63;;
62030;SDS011;62035;52.094;5.112;2023-05-15T01:00:42;44.30;;;25.90;;
62030;SDS011;62035;52.094;5.112;2023-05-15T01:03:13;46.30;;;26.30;;
62030;SDS011;62035;52.094;5.112;2023-05-15T01:05:41;47.05;;;25.70;;
62030;SDS011;62035;52.094;5.112;2023-05-15T01:08:11;46.25;;;26.77;;
62030;SDS011;62035;52.094;5.112;2023-05-15T01:10:47;51.85;;;28.75;;
62030;SDS011;62035;52.094;5.112;2023-05-15T01:15:47;48.88;;;26.42;;
62030;SDS011;62035;52.094;5.112;2023-05-15T01:18:16;52.22;;;28.30;;
62030;SDS011;62035;52.094;5.112;2023-05-15T01:20:46;46.25;;;26.30;;
62030;SDS011;62035;52.094;5.112;2023-05-15T01:23:36;55.05;;;28.08;;
62030;SDS011;62035;52.094;5.112;2023-05-15T01:26:23;54.95;;;27.38;;
62030;SDS011;62035;52.094;5.112;2023-05-15T01:29:22;50.70;;;26.63;;
62030;SDS011;62035;52.094;5.112;2023-05-15T01:31:57;53.47;;;27.83;;
62030;SDS011;62035;52.094;5.112;2023-05-15T01:34:31;51.55;;;28.13;;
62030;SDS011;62035;52.094;5.112;2023-05-15T01:37:10;49.70;;;27.90;;
62030;SDS011;62035;52.094;5.112;2023-05-15T01:39:44;61.65;;;29.00;;
62030;SDS011;62035;52.094;5.112;2023-05-15T01:42:18;49.00;;;26.45;;
62030;SDS011;62035;52.094;5.112;2023-05-15T01:44:52;61.47;;;29.60;;
62030;SDS011;62035;52.094;5.112;2023-05-15T01:47:25;45.42;;;24.80;;
62030;SDS011;62035;52.094;5.112;2023-05-15T01:49:59;50.95;;;26.02;;
62030;SDS011;62035;52.094;5.112;2023-05-15T01:52:31;50.33;;;26.60;;
62030;SDS011;62035;52.094;5.112;2023-05-15T01:55:03;52.95;;;27.48;;
62030;SDS011;62035;52.094;5.112;2023-05-15T01:57:33;51.63;;;26.90;;
62030;SDS011;62035;52.094;5.112;2023-05-15T02:00:05;46.38;;;26.13;;
62030;SDS011;62035;52.094;5.112;2023-05-15T02:02:35;53.42;;;25.60;;
62030;SDS011;62035;52.094;5.112;2023-05-15T02:05:04;54.60;;;27.70;;
62030;SDS011;62035;52.094;5.112;2023-05-15T02:07:33;46.38;;;25.80;;
62030;SDS011;62035;52.094;5.112;2023-05-15T02:10:01;47.90;;;25.63;;
62030;SDS011;62035;52.094;5.112;2023-05-15T02:12:29;54.15;;;28.55;;
62030;SDS011;62035;52.094;5.112;2023-05-15T02:14:58;52.67;;;26.17;;
62030;SDS011;62035;52.094;5.112;2023-05-15T02:17:30;50.80;;;25.00;;
62030;SDS011;62035;52.094;5.112;2023-05-15T02:19:58;56.58;;;27.23;;
62030;SDS011;62035;52.094;5.112;2023-05-15T02:22:25;46.55;;;25.73;;
62030;SDS011;62035;52.094;5.112;2023-05-15T02:24:53;48.42;;;26.25;;
62030;SDS011;62035;52.094;5.112;2023-05-15T02:27:21;46.75;;;25.60;;
62030;SDS011;62035;52.094;5.112;2023-05-15T02:30:05;50.75;;;25.20;;
62030;SDS011;62035;52.094;5.112;2023-05-15T02:32:55;46.45;;;24.35;;
62030;SDS011;62035;52.094;5.112;2023-05-15T02:35:41;50.45;;;24.77;;
62030;SDS011;62035;52.094;5.112;2023-05-15T02:38:18;51.58;;;26.05;;
62030;SDS011;62035;52.094;5.112;2023-05-15T02:40:55;44.38;;;23.27;;
62030;SDS011;62035;52.094;5.112;2023-05-15T02:43:25;52.25;;;25.30;;
62030;SDS011;62035;52.094;5.112;2023-05-15T02:45:53;42.63;;;23.75;;
62030;SDS011;62035;52.094;5.112;2023-05-15T02:48:24;53.92;;;26.17;;
62030;SDS011;62035;52.094;5.112;2023-05-15T02:50:53;49.65;;;25.33;;
62030;SDS011;62035;52.094;5.112;2023-05-15T02:53:21;46.28;;;23.95;;
62030;SDS011;62035;52.094;5.112;2023-05-15T02:55:48;50.00;;;25.83;;
62030;SDS011;62035;52.094;5.112;2023-05-15T02:58:16;50.75;;;25.55;;
62030;SDS011;62035;52.094;5.112;2023-05-15T03:00:44;48.17;;;24.65;;
62030;SDS011;62035;52.094;5.112;2023-05-15T03:03:11;49.83;;;24.52;;
62030;SDS011;62035;52.094;5.112;2023-05-15T03:05:40;53.28;;;26.23;;
62030;SDS011;62035;52.094;5.112;2023-05-15T03:08:08;45.80;;;24.48;;
62030;SDS011;62035;52.094;5.112;2023-05-15T03:10:35;45.38;;;25.02;;
62030;SDS011;62035;52.094;5.112;2023-05-15T03:13:03;47.65;;;23.75;;
62030;SDS011;62035;52.094;5.112;2023-05-15T03:15:31;41.92;;;23.65;;
62030;SDS011;62035;52.094;5.112;2023-05-15T03:17:58;39.20;;;21.92;;
62030;SDS011;62035;52.094;5.112;2023-05-15T03:20:26;38.03;;;21.88;;
62030;SDS011;62035;52.094;5.112;2023-05-15T03:22:55;46.15;;;23.60;;
62030;SDS011;62035;52.094;5.112;2023-05-15T03:25:22;47.75;;;24.08;;
62030;SDS011;62035;52.094;5.112;2023-05-15T03:27:50;37.15;;;21.95;;
62030;SDS011;62035;52.094;5.112;2023-05-15T03:30:18;46.45;;;23.45;;
62030;SDS011;62035;52.094;5.112;2023-05-15T03:32:45;40.75;;;22.92;;
62030;SDS011;62035;52.094;5.112;2023-05-15T03:35:13;40.65;;;21.63;;
62030;SDS011;62035;52.094;5.112;2023-05-15T03:37:41;38.28;;;21.75;;
62030;SDS011;62035;52.094;5.112;2023-05-15T03:40:11;41.58;;;23.42;;
62030;SDS011;62035;52.094;5.112;2023-05-15T03:42:39;41.72;;;22.38;;
62030;SDS011;62035;52.094;5.112;2023-05-15T03:45:07;32.63;;;19.17;;
62030;SDS011;62035;52.094;5.112;2023-05-15T03:47:35;36.95;;;20.10;;
62030;SDS011;62035;52.094;5.112;2023-05-15T03:50:03;35.97;;;21.40;;
62030;SDS011;62035;52.094;5.112;2023-05-15T03:52:32;40.70;;;23.27;;
62030;SDS011;62035;52.094;5.112;2023-05-15T03:55:00;44.80;;;24.00;;
62030;SDS011;62035;52.094;5.112;2023-05-15T03:57:29;45.10;;;25.02;;
62030;SDS011;62035;52.094;5.112;2023-05-15T03:59:58;47.42;;;23.80;;
62030;SDS011;62035;52.094;5.112;2023-05-15T04:02:26;47.50;;;24.90;;
62030;SDS011;62035;52.094;5.112;2023-05-15T04:04:53;45.30;;;23.67;;
62030;SDS011;62035;52.094;5.112;2023-05-15T04:07:21;48.30;;;25.08;;
62030;SDS011;62035;52.094;5.112;2023-05-15T04:09:48;43.95;;;22.40;;
62030;SDS011;62035;52.094;5.112;2023-05-15T04:12:16;44.10;;;23.73;;
62030;SDS011;62035;52.094;5.112;2023-05-15T04:14:45;44.67;;;23.50;;
62030;SDS011;62035;52.094;5.112;2023-05-15T04:17:12;45.90;;;22.98;;
62030;SDS011;62035;52.094;5.112;2023-05-15T04:19:40;37.40;;;21.15;;
62030;SDS011;62035;52.094;5.112;2023-05-15T04:22:08;34.67;;;19.23;;
62030;SDS011;62035;52.094;5.112;2023-05-15T04:24:35;34.75;;;20.30;;
62030;SDS011;62035;52.094;5.112;2023-05-15T04:27:03;32.80;;;20.05;;
62030;SDS011;62035;52.094;5.112;2023-05-15T04:29:31;38.28;;;19.08;;
62030;SDS011;62035;52.094;5.112;2023-05-15T04:32:00;32.88;;;18.20;;
62030;SDS011;62035;52.094;5.112;2023-05-15T04:34:28;25.65;;;17.13;;
62030;SDS011;62035;52.094;5.112;2023-05-15T04:36:56;27.80;;;17.40;;
62030;SDS011;62035;52.094;5.112;2023-05-15T04:39:23;30.77;;;18.35;;
62030;SDS011;62035;52.094;5.112;2023-05-15T04:41:51;31.60;;;20.67;;
62030;SDS011;62035;52.094;5.112;2023-05-15T04:44:18;28.00;;;19.13;;
62030;SDS011;62035;52.094;5.112;2023-05-15T04:46:46;37.85;;;20.13;;
62030;SDS011;62035;52.094;5.112;2023-05-15T04:49:15;34.47;;;19.85;;
62030;SDS011;62035;52.094;5.112;2023-05-15T04:51:43;27.40;;;18.70;;
62030;SDS011;62035;52.094;5.112;2023-05-15T04:54:11;31.80;;;20.38;;
62030;SDS011;62035;52.094;5.112;2023-05-15T04:56:38;33.65;;;20.42;;
62030;SDS011;62035;52.094;5.112;2023-05-15T04:59:06;27.23;;;19.02;;
62030;SDS011;62035;52.094;5.112;2023-05-15T05:01:34;29.58;;;19.30;;
62030;SDS011;62035;52.094;5.112;2023-05-15T05:04:02;24.30;;;17.05;;
62030;SDS011;62035;52.094;5.112;2023-05-15T05:06:31;26.67;;;17.13;;
62030;SDS011;62035;52.094;5.112;2023-05-15T05:08:58;27.83;;;17.13;;
62030;SDS011;62035;52.094;5.112;2023-05-15T05:11:26;24.42;;;16.75;;
62030;SDS011;62035;52.094;5.112;2023-05-15T05:13:53;27.33;;;16.75;;
62030;SDS011;62035;52.094;5.112;2023-05-15T05:16:21;24.77;;;17.92;;
62030;SDS011;62035;52.094;5.112;2023-05-15T05:18:48;27.27;;;18.33;;
62030;SDS011;62035;52.094;5.112;2023-05-15T05:21:16;27.90;;;18.02;;
62030;SDS011;62035;52.094;5.112;2023-05-15T05:23:45;27.10;;;18.33;;
62030;SDS011;62035;52.094;5.112;2023-05-15T05:26:13;29.92;;;19.38;;
62030;SDS011;62035;52.094;5.112;2023-05-15T05:28:40;29.95;;;18.63;;
62030;SDS011;62035;52.094;5.112;2023-05-15T05:31:08;28.02;;;18.88;;
62030;SDS011;62035;52.094;5.112;2023-05-15T05:33:35;26.30;;;19.23;;
62030;SDS011;62035;52.094;5.112;2023-05-15T05:36:03;31.15;;;18.33;;
62030;SDS011;62035;52.094;5.112;2023-05-15T05:38:31;26.98;;;18.88;;
62030;SDS011;62035;52.094;5.112;2023-05-15T05:41:01;25.98;;;18.25;;
62030;SDS011;62035;52.094;5.112;2023-05-15T05:43:29;25.13;;;17.27;;
62030;SDS011;62035;52.094;5.112;2023-05-15T05:45:57;23.58;;;18.00;;
62030;SDS011;62035;52.094;5.112;2023-05-15T05:48:25;28.45;;;18.23;;
62030;SDS011;62035;52.094;5.112;2023-05-15T05:50:53;21.58;;;16.85;;
62030;SDS011;62035;52.094;5.112;2023-05-15T05:53:20;24.10;;;16.83;;
62030;SDS011;62035;52.094;5.112;2023-05-15T05:55:48;23.10;;;15.80;;
62030;SDS011;62035;52.094;5.112;2023-05-15T05:58:17;21.15;;;15.05;;
62030;SDS011;62035;52.094;5.112;2023-05-15T06:00:45;22.25;;;15.57;;
62030;SDS011;62035;52.094;5.112;2023-05-15T06:03:13;25.42;;;16.33;;
62030;SDS011;62035;52.094;5.112;2023-05-15T06:05:41;21.13;;;16.50;;
62030;SDS011;62035;52.094;5.112;2023-05-15T06:08:08;21.85;;;15.40;;
62030;SDS011;62035;52.094;5.112;2023-05-15T06:10:36;21.30;;;14.35;;
62030;SDS011;62035;52.094;5.112;2023-05-15T06:13:04;19.60;;;14.70;;
62030;SDS011;62035;52.094;5.112;2023-05-15T06:15:35;24.33;;;14.82;;
62030;SDS011;62035;52.094;5.112;2023-05-15T06:18:02;23.02;;;14.88;;
62030;SDS011;62035;52.094;5.112;2023-05-15T06:20:30;20.40;;;14.38;;
62030;SDS011;62035;52.094;5.112;2023-05-15T06:22:58;21.83;;;14.82;;
62030;SDS011;62035;52.094;5.112;2023-05-15T06:25:26;26.10;;;16.58;;
62030;SDS011;62035;52.094;5.112;2023-05-15T06:27:53;21.45;;;16.02;;
62030;SDS011;62035;52.094;5.112;2023-05-15T06:30:21;21.65;;;15.98;;
62030;SDS011;62035;52.094;5.112;2023-05-15T06:32:50;29.38;;;16.83;;
62030;SDS011;62035;52.094;5.112;2023-05-15T06:35:18;24.20;;;15.52;;
62030;SDS011;62035;52.094;5.112;2023-05-15T06:37:48;24.05;;;17.02;;
62030;SDS011;62035;52.094;5.112;2023-05-15T06:40:17;25.35;;;17.40;;
62030;SDS011;62035;52.094;5.112;2023-05-15T06:42:46;27.95;;;18.05;;
62030;SDS011;62035;52.094;5.112;2023-05-15T06:45:14;29.23;;;20.13;;
62030;SDS011;62035;52.094;5.112;2023-05-15T06:47:41;26.48;;;19.42;;
62030;SDS011;62035;52.094;5.112;2023-05-15T06:50:10;28.88;;;21.08;;
62030;SDS011;62035;52.094;5.112;2023-05-15T06:52:38;29.95;;;20.15;;
62030;SDS011;62035;52.094;5.112;2023-05-15T06:55:06;27.40;;;18.92;;
62030;SDS011;62035;52.094;5.112;2023-05-15T06:57:34;31.48;;;20.70;;
62030;SDS011;62035;52.094;5.112;2023-05-15T07:00:02;26.75;;;19.98;;
62030;SDS011;62035;52.094;5.112;2023-05-15T07:02:31;31.42;;;19.45;;
62030;SDS011;62035;52.094;5.112;2023-05-15T07:04:59;30.83;;;19.60;;
62030;SDS011;62035;52.094;5.112;2023-05-15T07:07:29;32.97;;;18.30;;
62030;SDS011;62035;52.094;5.112;2023-05-15T07:09:56;25.38;;;16.95;;
62030;SDS011;62035;52.094;5.112;2023-05-15T07:12:24;24.33;;;17.33;;
62030;SDS011;62035;52.094;5.112;2023-05-15T07:14:52;26.35;;;17.23;;
62030;SDS011;62035;52.094;5.112;2023-05-15T07:17:19;21.92;;;15.32;;
62030;SDS011;62035;52.094;5.112;2023-05-15T07:19:47;22.02;;;15.68;;
62030;SDS011;62035;52.094;5.112;2023-05-15T07:22:14;27.20;;;16.67;;
62030;SDS011;62035;52.094;5.112;2023-05-15T07:24:43;25.42;;;14.90;;
62030;SDS011;62035;52.094;5.112;2023-05-15T07:27:12;27.13;;;15.68;;
62030;SDS011;62035;52.094;5.112;2023-05-15T07:29:40;23.20;;;16.27;;
62030;SDS011;62035;52.094;5.112;2023-05-15T07:32:07;26.58;;;15.80;;
62030;SDS011;62035;52.094;5.112;2023-05-15T07:34:35;22.60;;;15.02;;
62030;SDS011;62035;52.094;5.112;2023-05-15T07:37:02;23.13;;;13.73;;
62030;SDS011;62035;52.094;5.112;2023-05-15T07:39:30;22.73;;;14.18;;
62030;SDS011;62035;52.094;5.112;2023-05-15T07:41:59;23.58;;;14.93;;
62030;SDS011;62035;52.094;5.112;2023-05-15T07:44:27;21.23;;;14.90;;
62030;SDS011;62035;52.094;5.112;2023-05-15T07:46:54;24.27;;;16.55;;
62030;SDS011;62035;52.094;5.112;2023-05-15T07:49:22;21.65;;;15.25;;
62030;SDS011;62035;52.094;5.112;2023-05-15T07:51:50;20.63;;;15.52;;
62030;SDS011;62035;52.094;5.112;2023-05-15T07:54:17;21.10;;;15.23;;
62030;SDS011;62035;52.094;5.112;2023-05-15T07:56:45;21.80;;;14.45;;
62030;SDS011;62035;52.094;5.112;2023-05-15T07:59:14;21.65;;;15.35;;
62030;SDS011;62035;52.094;5.112;2023-05-15T08:01:42;20.92;;;14.02;;
62030;SDS011;62035;52.094;5.112;2023-05-15T08:04:10;23.15;;;15.23;;
62030;SDS011;62035;52.094;5.112;2023-05-15T08:06:38;22.17;;;15.07;;
62030;SDS011;62035;52.094;5.112;2023-05-15T08:09:07;20.23;;;14.63;;
62030;SDS011;62035;52.094;5.112;2023-05-15T08:11:34;22.52;;;14.57;;
62030;SDS011;62035;52.094;5.112;2023-05-15T08:14:02;22.90;;;16.15;;
62030;SDS011;62035;52.094;5.112;2023-05-15T08:16:31;21.67;;;15.07;;
62030;SDS011;62035;52.094;5.112;2023-05-15T08:18:59;18.25;;;13.80;;
62030;SDS011;62035;52.094;5.112;2023-05-15T08:21:29;21.95;;;14.05;;
62030;SDS011;62035;52.094;5.112;2023-05-15T08:23:57;21.70;;;15.65;;
62030;SDS011;62035;52.094;5.112;2023-05-15T08:26:26;21.05;;;14.48;;
62030;SDS011;62035;52.094;5.112;2023-05-15T08:28:53;23.17;;;16.10;;
62030;SDS011;62035;52.094;5.112;2023-05-15T08:31:21;23.83;;;15.65;;
62030;SDS011;62035;52.094;5.112;2023-05-15T08:33:50;25.25;;;16.45;;
62030;SDS011;62035;52.094;5.112;2023-05-15T08:36:17;23.58;;;16.55;;
62030;SDS011;62035;52.094;5.112;2023-05-15T08:38:45;24.65;;;16.52;;
62030;SDS011;62035;52.094;5.112;2023-05-15T08:41:15;28.27;;;16.58;;
62030;SDS011;62035;52.094;5.112;2023-05-15T08:43:51;30.35;;;15.63;;
62030;SDS011;62035;52.094;5.112;2023-05-15T08:46:22;22.33;;;15.98;;
62030;SDS011;62035;52.094;5.112;2023-05-15T08:48:51;20.73;;;15.23;;
62030;SDS011;62035;52.094;5.112;2023-05-15T08:51:22;28.98;;;15.85;;
62030;SDS011;62035;52.094;5.112;2023-05-15T08:53:50;23.67;;;15.48;;
62030;SDS011;62035;52.094;5.112;2023-05-15T08:56:18;26.42;;;15.85;;
62030;SDS011;62035;52.094;5.112;2023-05-15T08:58:46;25.08;;;16.27;;
62030;SDS011;62035;52.094;5.112;2023-05-15T09:01:14;25.25;;;15.10;;
62030;SDS011;62035;52.094;5.112;2023-05-15T09:03:42;21.42;;;15.50;;
62030;SDS011;62035;52.094;5.112;2023-05-15T09:06:11;26.05;;;17.85;;
62030;SDS011;62035;52.094;5.112;2023-05-15T09:08:40;29.80;;;18.00;;
62030;SDS011;62035;52.094;5.112;2023-05-15T09:11:09;25.35;;;17.15;;
62030;SDS011;62035;52.094;5.112;2023-05-15T09:13:41;25.75;;;17.30;;
62030;SDS011;62035;52.094;5.112;2023-05-15T09:16:08;26.10;;;17.70;;
62030;SDS011;62035;52.094;5.112;2023-05-15T09:18:36;25.10;;;17.13;;
62030;SDS011;62035;52.094;5.112;2023-05-15T09:21:22;29.92;;;17.85;;
62030;SDS011;62035;52.094;5.112;2023-05-15T09:23:51;26.13;;;17.63;;
62030;SDS011;62035;52.094;5.112;2023-05-15T09:26:20;31.70;;;18.73;;
62030;SDS011;62035;52.094;5.112;2023-05-15T09:28:49;31.63;;;18.25;;
62030;SDS011;62035;52.094;5.112;2023-05-15T09:31:18;30.95;;;18.50;;
62030;SDS011;62035;52.094;5.112;2023-05-15T09:33:47;31.63;;;18.70;;
62030;SDS011;62035;52.094;5.112;2023-05-15T09:36:30;30.00;;;18.30;;
62030;SDS011;62035;52.094;5.112;2023-05-15T09:38:59;28.80;;;18.17;;
62030;SDS011;62035;52.094;5.112;2023-05-15T09:41:27;30.10;;;18.50;;
62030;SDS011;62035;52.094;5.112;2023-05-15T09:43:55;27.52;;;17.92;;
62030;SDS011;62035;52.094;5.112;2023-05-15T09:46:23;29.38;;;18.20;;
62030;SDS011;62035;52.094;5.112;2023-05-15T09:48:53;31.20;;;18.98;;
62030;SDS011;62035;52.094;5.112;2023-05-15T09:51:21;28.05;;;18.25;;
62030;SDS011;62035;52.094;5.112;2023-05-15T09:53:50;31.35;;;17.83;;
62030;SDS011;62035;52.094;5.112;2023-05-15T09:56:19;30.10;;;19.20;;
62030;SDS011;62035;52.094;5.112;2023-05-15T09:58:50;30.15;;;18.95;;
62030;SDS011;62035;52.094;5.112;2023-05-15T10:03:55;35.70;;;20.17;;
62030;SDS011;62035;52.094;5.112;2023-05-15T10:06:24;30.45;;;19.33;;
62030;SDS011;62035;52.094;5.112;2023-05-15T10:08:53;33.53;;;20.10;;
62030;SDS011;62035;52.094;5.112;2023-05-15T10:11:22;35.28;;;21.17;;
62030;SDS011;62035;52.094;5.112;2023-05-15T10:13:50;33.58;;;21.13;;
62030;SDS011;62035;52.094;5.112;2023-05-15T10:16:19;41.83;;;21.95;;
62030;SDS011;62035;52.094;5.112;2023-05-15T10:18:48;36.45;;;22.55;;
62030;SDS011;62035;52.094;5.112;2023-05-15T10:21:18;36.72;;;22.60;;
62030;SDS011;62035;52.094;5.112;2023-05-15T10:23:49;37.30;;;22.75;;
62030;SDS011;62035;52.094;5.112;2023-05-15T10:26:21;35.05;;;22.10;;
62030;SDS011;62035;52.094;5.112;2023-05-15T10:28:58;37.80;;;22.83;;
62030;SDS011;62035;52.094;5.112;2023-05-15T10:31:28;39.35;;;23.98;;
62030;SDS011;62035;52.094;5.112;2023-05-15T10:33:57;39.42;;;23.92;;
62030;SDS011;62035;52.094;5.112;2023-05-15T10:36:27;41.33;;;25.05;;
62030;SDS011;62035;52.094;5.112;2023-05-15T10:38:55;40.20;;;23.85;;
62030;SDS011;62035;52.094;5.112;2023-05-15T10:41:27;40.58;;;24.25;;
62030;SDS011;62035;52.094;5.112;2023-05-15T10:43:57;38.83;;;24.63;;
62030;SDS011;62035;52.094;5.112;2023-05-15T10:46:26;35.47;;;23.67;;
62030;SDS011;62035;52.094;5.112;2023-05-15T10:48:57;44.08;;;23.90;;
62030;SDS011;62035;52.094;5.112;2023-05-15T10:51:27;42.95;;;25.50;;
62030;SDS011;62035;52.094;5.112;2023-05-15T10:53:58;40.88;;;24.23;;
62030;SDS011;62035;52.094;5.112;2023-05-15T10:56:30;34.47;;;24.10;;
62030;SDS011;62035;52.094;5.112;2023-05-15T10:59:03;36.70;;;21.98;;
62030;SDS011;62035;52.094;5.112;2023-05-15T11:01:33;39.67;;;22.67;;
62030;SDS011;62035;52.094;5.112;2023-05-15T11:04:07;49.78;;;24.90;;
62030;SDS011;62035;52.094;5.112;2023-05-15T11:06:38;37.83;;;23.67;;
62030;SDS011;62035;52.094;5.112;2023-05-15T11:12:05;34.00;;;22.40;;
62030;SDS011;62035;52.094;5.112;2023-05-15T11:17:05;31.58;;;21.63;;
62030;SDS011;62035;52.094;5.112;2023-05-15T11:19:35;33.22;;;21.55;;
62030;SDS011;62035;52.094;5.112;2023-05-15T11:22:17;29.05;;;18.80;;
62030;SDS011;62035;52.094;5.112;2023-05-15T11:24:47;27.77;;;18.58;;
62030;SDS011;62035;52.094;5.112;2023-05-15T11:27:20;24.65;;;17.95;;
62030;SDS011;62035;52.094;5.112;2023-05-15T11:30:02;25.60;;;18.50;;
62030;SDS011;62035;52.094;5.112;2023-05-15T11:32:41;26.98;;;16.80;;
62030;SDS011;62035;52.094;5.112;2023-05-15T11:35:24;18.92;;;14.80;;
62030;SDS011;62035;52.094;5.112;2023-05-15T11:37:57;22.67;;;15.23;;
62030;SDS011;62035;52.094;5.112;2023-05-15T11:40:26;24.58;;;15.65;;
62030;SDS011;62035;52.094;5.112;2023-05-15T11:43:06;23.13;;;14.40;;
62030;SDS011;62035;52.094;5.112;2023-05-15T11:45:51;20.60;;;14.13;;
62030;SDS011;62035;52.094;5.112;2023-05-15T11:48:22;21.65;;;14.25;;
62030;SDS011;62035;52.094;5.112;2023-05-15T11:50:57;19.58;;;13.77;;
62030;SDS011;62035;52.094;5.112;2023-05-15T11:53:27;20.30;;;12.80;;
62030;SDS011;62035;52.094;5.112;2023-05-15T11:55:56;19.90;;;12.48;;
62030;SDS011;62035;52.094;5.112;2023-05-15T11:58:26;15.13;;;11.43;;
62030;SDS011;62035;52.094;5.112;2023-05-15T12:00:53;15.52;;;11.70;;
62030;SDS011;62035;52.094;5.112;2023-05-15T12:03:23;18.67;;;12.40;;
62030;SDS011;62035;52.094;5.112;2023-05-15T12:05:53;18.00;;;10.73;;
62030;SDS011;62035;52.094;5.112;2023-05-15T12:08:21;17.63;;;11.27;;
62030;SDS011;62035;52.094;5.112;2023-05-15T12:10:49;17.35;;;10.52;;
62030;SDS011;62035;52.094;5.112;2023-05-15T12:13:17;16.58;;;10.30;;
62030;SDS011;62035;52.094;5.112;2023-05-15T12:15:46;14.27;;;9.30;;
62030;SDS011;62035;52.094;5.112;2023-05-15T12:18:14;13.85;;;9.48;;
62030;SDS011;62035;52.094;5.112;2023-05-15T12:20:41;16.42;;;10.23;;
62030;SDS011;62035;52.094;5.112;2023-05-15T12:23:09;12.75;;;8.68;;
62030;SDS011;62035;52.094;5.112;2023-05-15T12:25:40;12.27;;;7.40;;
62030;SDS011;62035;52.094;5.112;2023-05-15T12:28:10;11.95;;;7.25;;
62030;SDS011;62035;52.094;5.112;2023-05-15T12:30:38;12.00;;;7.38;;
62030;SDS011;62035;52.094;5.112;2023-05-15T12:33:09;11.13;;;6.60;;
62030;SDS011;62035;52.094;5.112;2023-05-15T12:35:40;14.90;;;5.82;;
62030;SDS011;62035;52.094;5.112;2023-05-15T12:38:13;9.68;;;6.45;;
62030;SDS011;62035;52.094;5.112;2023-05-15T12:40:42;12.15;;;6.63;;
62030;SDS011;62035;52.094;5.112;2023-05-15T12:43:11;13.27;;;7.07;;
62030;SDS011;62035;52.094;5.112;2023-05-15T12:45:40;16.25;;;8.90;;
62030;SDS011;62035;52.094;5.112;2023-05-15T12:48:13;13.70;;;8.77;;
62030;SDS011;62035;52.094;5.112;2023-05-15T12:50:42;15.95;;;8.93;;
62030;SDS011;62035;52.094;5.112;2023-05-15T12:53:12;20.23;;;9.63;;
62030;SDS011;62035;52.094;5.112;2023-05-15T12:55:42;17.92;;;9.93;;
62030;SDS011;62035;52.094;5.112;2023-05-15T12:58:13;20.73;;;10.40;;
62030;SDS011;62035;52.094;5.112;2023-05-15T13:00:43;32.70;;;11.40;;
62030;SDS011;62035;52.094;5.112;2023-05-15T13:03:14;27.90;;;11.15;;
62030;SDS011;62035;52.094;5.112;2023-05-15T13:05:42;21.98;;;11.00;;
62030;SDS011;62035;52.094;5.112;2023-05-15T13:08:13;18.23;;;9.15;;
62030;SDS011;62035;52.094;5.112;2023-05-15T13:10:42;19.63;;;9.43;;
62030;SDS011;62035;52.094;5.112;2023-05-15T13:13:11;27.90;;;9.60;;
62030;SDS011;62035;52.094;5.112;2023-05-15T13:15:41;15.65;;;8.05;;
62030;SDS011;62035;52.094;5.112;2023-05-15T13:18:10;11.90;;;6.00;;
62030;SDS011;62035;52.094;5.112;2023-05-15T13:20:42;13.40;;;5.88;;
62030;SDS011;62035;52.094;5.112;2023-05-15T13:23:14;8.88;;;5.40;;
62030;SDS011;62035;52.094;5.112;2023-05-15T13:25:44;11.25;;;5.22;;
62030;SDS011;62035;52.094;5.112;2023-05-15T13:28:12;8.88;;;5.72;;
62030;SDS011;62035;52.094;5.112;2023-05-15T13:30:40;8.35;;;5.18;;
62030;SDS011;62035;52.094;5.112;2023-05-15T13:33:09;9.13;;;4.72;;
62030;SDS011;62035;52.094;5.112;2023-05-15T13:35:38;8.57;;;4.78;;
62030;SDS011;62035;52.094;5.112;2023-05-15T13:38:09;14.35;;;5.78;;
62030;SDS011;62035;52.094;5.112;2023-05-15T13:40:37;10.27;;;4.25;;
62030;SDS011;62035;52.094;5.112;2023-05-15T13:43:05;9.52;;;4.40;;
62030;SDS011;62035;52.094;5.112;2023-05-15T13:45:33;9.82;;;4.80;;
62030;SDS011;62035;52.094;5.112;2023-05-15T13:48:01;9.32;;;4.35;;
62030;SDS011;62035;52.094;5.112;2023-05-15T13:50:29;10.38;;;4.00;;
62030;SDS011;62035;52.094;5.112;2023-05-15T13:52:57;17.23;;;4.25;;
62030;SDS011;62035;52.094;5.112;2023-05-15T13:55:26;9.65;;;3.65;;
62030;SDS011;62035;52.094;5.112;2023-05-15T13:57:54;12.63;;;4.30;;
62030;SDS011;62035;52.094;5.112;2023-05-15T14:00:21;12.98;;;4.57;;
62030;SDS011;62035;52.094;5.112;2023-05-15T14:02:49;10.70;;;3.80;;
62030;SDS011;62035;52.094;5.112;2023-05-15T14:05:17;11.23;;;4.10;;
62030;SDS011;62035;52.094;5.112;2023-05-15T14:07:44;9.68;;;3.47;;
62030;SDS011;62035;52.094;5.112;2023-05-15T14:10:12;14.10;;;4.00;;
62030;SDS011;62035;52.094;5.112;2023-05-15T14:12:41;14.85;;;3.80;;
62030;SDS011;62035;52.094;5.112;2023-05-15T14:15:09;12.80;;;3.65;;
62030;SDS011;62035;52.094;5.112;2023-05-15T14:17:38;12.75;;;3.75;;
62030;SDS011;62035;52.094;5.112;2023-05-15T14:20:06;11.18;;;3.78;;
62030;SDS011;62035;52.094;5.112;2023-05-15T14:22:36;6.25;;;3.63;;
62030;SDS011;62035;52.094;5.112;2023-05-15T14:25:05;13.00;;;3.80;;
62030;SDS011;62035;52.094;5.112;2023-05-15T14:27:34;11.40;;;3.10;;
62030;SDS011;62035;52.094;5.112;2023-05-15T14:30:04;11.63;;;3.42;;
62030;SDS011;62035;52.094;5.112;2023-05-15T14:32:33;8.10;;;3.28;;
62030;SDS011;62035;52.094;5.112;2023-05-15T14:35:00;6.85;;;2.92;;
62030;SDS011;62035;52.094;5.112;2023-05-15T14:37:28;10.73;;;2.72;;
62030;SDS011;62035;52.094;5.112;2023-05-15T14:39:56;9.73;;;2.80;;
62030;SDS011;62035;52.094;5.112;2023-05-15T14:42:24;8.10;;;2.47;;
62030;SDS011;62035;52.094;5.112;2023-05-15T14:44:52;4.97;;;2.60;;
62030;SDS011;62035;52.094;5.112;2023-05-15T14:47:21;9.98;;;2.50;;